sensor_id;sensor_type;location;lat;lon;timestamp;P1;durP1;ratioP1;P2;durP2;ratioP2
55455;SDS011;63021;52.836;6.376;2023-03-01T00:00:12;20.50;;;14.50;;
55455;SDS011;63021;52.836;6.376;2023-03-01T00:02:38;23.08;;;16.50;;
55455;SDS011;63021;52.836;6.376;2023-03-01T00:05:03;18.23;;;14.10;;
55455;SDS011;63021;52.836;6.376;2023-03-01T00:07:29;20.05;;;15.30;;
55455;SDS011;63021;52.836;6.376;2023-03-01T00:09:55;21.80;;;15.73;;
55455;SDS011;63021;52.836;6.376;2023-03-01T00:12:20;19.02;;;14.43;;
55455;SDS011;63021;52.836;6.376;2023-03-01T00:14:45;15.02;;;13.23;;
55455;SDS011;63021;52.836;6.376;2023-03-01T00:17:11;17.75;;;13.52;;
55455;SDS011;63021;52.836;6.376;2023-03-01T00:19:36;19.35;;;13.95;;
55455;SDS011;63021;52.836;6.376;2023-03-01T00:22:02;18.85;;;13.52;;
55455;SDS011;63021;52.836;6.376;2023-03-01T00:24:27;14.85;;;12.15;;
55455;SDS011;63021;52.836;6.376;2023-03-01T00:26:53;15.93;;;12.13;;
55455;SDS011;63021;52.836;6.376;2023-03-01T00:29:23;12.82;;;10.93;;
55455;SDS011;63021;52.836;6.376;2023-03-01T00:31:50;11.98;;;10.35;;
55455;SDS011;63021;52.836;6.376;2023-03-01T00:34:15;10.13;;;9.07;;
55455;SDS011;63021;52.836;6.376;2023-03-01T00:36:41;13.10;;;9.40;;
55455;SDS011;63021;52.836;6.376;2023-03-01T00:39:09;15.02;;;10.93;;
55455;SDS011;63021;52.836;6.376;2023-03-01T00:41:38;12.10;;;10.02;;
55455;SDS011;63021;52.836;6.376;2023-03-01T00:44:05;11.82;;;10.43;;
55455;SDS011;63021;52.836;6.376;2023-03-01T00:46:30;12.32;;;10.68;;
55455;SDS011;63021;52.836;6.376;2023-03-01T00:48:55;15.75;;;10.40;;
55455;SDS011;63021;52.836;6.376;2023-03-01T00:51:22;14.77;;;10.50;;
55455;SDS011;63021;52.836;6.376;2023-03-01T00:53:50;15.20;;;10.68;;
55455;SDS011;63021;52.836;6.376;2023-03-01T00:56:18;15.77;;;12.32;;
55455;SDS011;63021;52.836;6.376;2023-03-01T00:58:44;17.63;;;12.55;;
55455;SDS011;63021;52.836;6.376;2023-03-01T01:01:10;14.88;;;12.15;;
55455;SDS011;63021;52.836;6.376;2023-03-01T01:03:51;12.63;;;11.30;;
55455;SDS011;63021;52.836;6.376;2023-03-01T01:06:22;15.65;;;11.63;;
55455;SDS011;63021;52.836;6.376;2023-03-01T01:08:48;17.63;;;12.00;;
55455;SDS011;63021;52.836;6.376;2023-03-01T01:11:14;14.50;;;11.07;;
55455;SDS011;63021;52.836;6.376;2023-03-01T01:13:40;14.05;;;11.60;;
55455;SDS011;63021;52.836;6.376;2023-03-01T01:16:06;18.05;;;11.45;;
55455;SDS011;63021;52.836;6.376;2023-03-01T01:18:32;14.82;;;11.07;;
55455;SDS011;63021;52.836;6.376;2023-03-01T01:21:02;14.05;;;11.50;;
55455;SDS011;63021;52.836;6.376;2023-03-01T01:23:32;14.45;;;11.50;;
55455;SDS011;63021;52.836;6.376;2023-03-01T01:26:03;14.18;;;11.80;;
55455;SDS011;63021;52.836;6.376;2023-03-01T01:28:33;14.43;;;11.60;;
55455;SDS011;63021;52.836;6.376;2023-03-01T01:30:59;14.02;;;11.05;;
55455;SDS011;63021;52.836;6.376;2023-03-01T01:33:28;15.80;;;11.68;;
55455;SDS011;63021;52.836;6.376;2023-03-01T01:35:54;13.70;;;10.68;;
55455;SDS011;63021;52.836;6.376;2023-03-01T01:38:20;13.48;;;10.75;;
55455;SDS011;63021;52.836;6.376;2023-03-01T01:40:46;11.85;;;10.20;;
55455;SDS011;63021;52.836;6.376;2023-03-01T01:43:25;14.15;;;10.45;;
55455;SDS011;63021;52.836;6.376;2023-03-01T01:46:03;15.15;;;10.35;;
55455;SDS011;63021;52.836;6.376;2023-03-01T01:48:39;16.15;;;10.43;;
55455;SDS011;63021;52.836;6.376;2023-03-01T01:51:13;12.60;;;10.30;;
55455;SDS011;63021;52.836;6.376;2023-03-01T01:53:44;13.38;;;10.35;;
55455;SDS011;63021;52.836;6.376;2023-03-01T01:56:12;12.63;;;11.18;;
55455;SDS011;63021;52.836;6.376;2023-03-01T01:58:40;19.30;;;11.60;;
55455;SDS011;63021;52.836;6.376;2023-03-01T02:01:08;12.40;;;10.63;;
55455;SDS011;63021;52.836;6.376;2023-03-01T02:03:35;15.30;;;11.38;;
55455;SDS011;63021;52.836;6.376;2023-03-01T02:06:10;16.30;;;12.10;;
55455;SDS011;63021;52.836;6.376;2023-03-01T02:08:37;30.48;;;15.05;;
55455;SDS011;63021;52.836;6.376;2023-03-01T02:11:06;37.60;;;16.33;;
55455;SDS011;63021;52.836;6.376;2023-03-01T02:13:33;38.38;;;17.50;;
55455;SDS011;63021;52.836;6.376;2023-03-01T02:16:02;39.85;;;16.73;;
55455;SDS011;63021;52.836;6.376;2023-03-01T02:18:28;30.88;;;17.80;;
55455;SDS011;63021;52.836;6.376;2023-03-01T02:23:42;63.75;;;20.60;;
55455;SDS011;63021;52.836;6.376;2023-03-01T02:26:15;53.08;;;20.10;;
55455;SDS011;63021;52.836;6.376;2023-03-01T02:28:49;42.60;;;20.52;;
55455;SDS011;63021;52.836;6.376;2023-03-01T02:31:16;55.45;;;18.98;;
55455;SDS011;63021;52.836;6.376;2023-03-01T02:34:02;39.55;;;17.75;;
55455;SDS011;63021;52.836;6.376;2023-03-01T02:36:42;39.03;;;16.38;;
55455;SDS011;63021;52.836;6.376;2023-03-01T02:39:13;36.40;;;15.93;;
55455;SDS011;63021;52.836;6.376;2023-03-01T02:41:47;31.10;;;14.55;;
55455;SDS011;63021;52.836;6.376;2023-03-01T02:44:18;43.00;;;15.13;;
55455;SDS011;63021;52.836;6.376;2023-03-01T02:46:44;24.83;;;15.07;;
55455;SDS011;63021;52.836;6.376;2023-03-01T02:49:16;37.20;;;15.80;;
55455;SDS011;63021;52.836;6.376;2023-03-01T02:51:51;20.77;;;15.25;;
55455;SDS011;63021;52.836;6.376;2023-03-01T02:55:19;23.48;;;15.95;;
55455;SDS011;63021;52.836;6.376;2023-03-01T02:57:43;24.05;;;15.32;;
55455;SDS011;63021;52.836;6.376;2023-03-01T03:00:13;18.85;;;14.38;;
55455;SDS011;63021;52.836;6.376;2023-03-01T03:02:44;17.45;;;13.30;;
55455;SDS011;63021;52.836;6.376;2023-03-01T03:07:42;15.95;;;13.63;;
55455;SDS011;63021;52.836;6.376;2023-03-01T03:10:11;16.52;;;12.85;;
55455;SDS011;63021;52.836;6.376;2023-03-01T03:12:40;17.58;;;13.15;;
55455;SDS011;63021;52.836;6.376;2023-03-01T03:15:06;16.73;;;13.25;;
55455;SDS011;63021;52.836;6.376;2023-03-01T03:17:37;21.73;;;16.60;;
55455;SDS011;63021;52.836;6.376;2023-03-01T03:20:04;18.48;;;13.80;;
55455;SDS011;63021;52.836;6.376;2023-03-01T03:22:31;19.23;;;14.30;;
55455;SDS011;63021;52.836;6.376;2023-03-01T03:24:59;18.10;;;14.32;;
55455;SDS011;63021;52.836;6.376;2023-03-01T03:27:25;18.02;;;14.38;;
55455;SDS011;63021;52.836;6.376;2023-03-01T03:29:50;17.77;;;13.45;;
55455;SDS011;63021;52.836;6.376;2023-03-01T03:32:16;17.33;;;14.20;;
55455;SDS011;63021;52.836;6.376;2023-03-01T03:34:41;19.98;;;15.43;;
55455;SDS011;63021;52.836;6.376;2023-03-01T03:37:06;20.58;;;14.50;;
55455;SDS011;63021;52.836;6.376;2023-03-01T03:39:52;21.92;;;14.68;;
55455;SDS011;63021;52.836;6.376;2023-03-01T03:42:20;23.52;;;14.50;;
55455;SDS011;63021;52.836;6.376;2023-03-01T03:44:46;18.63;;;14.02;;
55455;SDS011;63021;52.836;6.376;2023-03-01T03:47:13;20.48;;;14.55;;
55455;SDS011;63021;52.836;6.376;2023-03-01T03:49:38;19.02;;;14.10;;
55455;SDS011;63021;52.836;6.376;2023-03-01T03:52:04;22.15;;;14.25;;
55455;SDS011;63021;52.836;6.376;2023-03-01T03:54:29;21.20;;;15.32;;
55455;SDS011;63021;52.836;6.376;2023-03-01T03:56:55;20.00;;;14.48;;
55455;SDS011;63021;52.836;6.376;2023-03-01T03:59:21;21.40;;;15.48;;
55455;SDS011;63021;52.836;6.376;2023-03-01T04:01:46;20.20;;;14.73;;
55455;SDS011;63021;52.836;6.376;2023-03-01T04:04:12;18.58;;;14.50;;
55455;SDS011;63021;52.836;6.376;2023-03-01T04:06:38;18.23;;;14.25;;
55455;SDS011;63021;52.836;6.376;2023-03-01T04:09:03;19.23;;;13.27;;
55455;SDS011;63021;52.836;6.376;2023-03-01T04:11:29;20.55;;;15.23;;
55455;SDS011;63021;52.836;6.376;2023-03-01T04:13:55;18.00;;;14.25;;
55455;SDS011;63021;52.836;6.376;2023-03-01T04:16:24;18.00;;;14.45;;
55455;SDS011;63021;52.836;6.376;2023-03-01T04:18:49;17.48;;;13.98;;
55455;SDS011;63021;52.836;6.376;2023-03-01T04:21:15;15.63;;;12.25;;
55455;SDS011;63021;52.836;6.376;2023-03-01T04:23:41;16.83;;;12.20;;
55455;SDS011;63021;52.836;6.376;2023-03-01T04:26:07;18.33;;;13.50;;
55455;SDS011;63021;52.836;6.376;2023-03-01T04:28:34;18.40;;;12.82;;
55455;SDS011;63021;52.836;6.376;2023-03-01T04:31:14;19.27;;;14.07;;
55455;SDS011;63021;52.836;6.376;2023-03-01T04:33:43;20.67;;;15.02;;
55455;SDS011;63021;52.836;6.376;2023-03-01T04:36:13;21.23;;;14.35;;
55455;SDS011;63021;52.836;6.376;2023-03-01T04:38:40;17.65;;;13.95;;
55455;SDS011;63021;52.836;6.376;2023-03-01T04:41:07;18.15;;;13.25;;
55455;SDS011;63021;52.836;6.376;2023-03-01T04:43:34;15.88;;;12.98;;
55455;SDS011;63021;52.836;6.376;2023-03-01T04:46:04;18.55;;;13.35;;
55455;SDS011;63021;52.836;6.376;2023-03-01T04:48:32;16.98;;;12.48;;
55455;SDS011;63021;52.836;6.376;2023-03-01T04:50:58;16.92;;;13.60;;
55455;SDS011;63021;52.836;6.376;2023-03-01T04:53:24;15.65;;;12.98;;
55455;SDS011;63021;52.836;6.376;2023-03-01T04:55:50;15.07;;;12.10;;
55455;SDS011;63021;52.836;6.376;2023-03-01T04:58:15;16.05;;;12.38;;
55455;SDS011;63021;52.836;6.376;2023-03-01T05:00:41;14.68;;;12.10;;
55455;SDS011;63021;52.836;6.376;2023-03-01T05:03:07;22.15;;;12.98;;
55455;SDS011;63021;52.836;6.376;2023-03-01T05:05:34;13.82;;;11.80;;
55455;SDS011;63021;52.836;6.376;2023-03-01T05:08:03;15.68;;;12.52;;
55455;SDS011;63021;52.836;6.376;2023-03-01T05:10:33;15.68;;;12.57;;
55455;SDS011;63021;52.836;6.376;2023-03-01T05:13:00;16.65;;;13.35;;
55455;SDS011;63021;52.836;6.376;2023-03-01T05:15:27;15.52;;;11.70;;
55455;SDS011;63021;52.836;6.376;2023-03-01T05:17:55;15.93;;;12.60;;
55455;SDS011;63021;52.836;6.376;2023-03-01T05:20:23;14.63;;;11.70;;
55455;SDS011;63021;52.836;6.376;2023-03-01T05:22:49;15.20;;;11.93;;
55455;SDS011;63021;52.836;6.376;2023-03-01T05:25:21;16.70;;;12.48;;
55455;SDS011;63021;52.836;6.376;2023-03-01T05:27:46;15.85;;;12.52;;
55455;SDS011;63021;52.836;6.376;2023-03-01T05:30:12;13.77;;;12.00;;
55455;SDS011;63021;52.836;6.376;2023-03-01T05:32:42;14.65;;;12.20;;
55455;SDS011;63021;52.836;6.376;2023-03-01T05:35:10;14.68;;;11.85;;
55455;SDS011;63021;52.836;6.376;2023-03-01T05:37:38;14.63;;;11.55;;
55455;SDS011;63021;52.836;6.376;2023-03-01T05:40:08;15.63;;;12.40;;
55455;SDS011;63021;52.836;6.376;2023-03-01T05:42:45;14.32;;;11.88;;
55455;SDS011;63021;52.836;6.376;2023-03-01T05:45:15;15.73;;;13.00;;
55455;SDS011;63021;52.836;6.376;2023-03-01T05:47:43;14.60;;;12.20;;
55455;SDS011;63021;52.836;6.376;2023-03-01T05:50:13;13.85;;;11.18;;
55455;SDS011;63021;52.836;6.376;2023-03-01T05:52:49;15.45;;;12.40;;
55455;SDS011;63021;52.836;6.376;2023-03-01T05:55:17;14.13;;;12.15;;
55455;SDS011;63021;52.836;6.376;2023-03-01T05:57:43;14.43;;;12.23;;
55455;SDS011;63021;52.836;6.376;2023-03-01T06:00:09;15.70;;;12.48;;
55455;SDS011;63021;52.836;6.376;2023-03-01T06:02:36;18.23;;;12.88;;
55455;SDS011;63021;52.836;6.376;2023-03-01T06:05:03;14.80;;;12.32;;
55455;SDS011;63021;52.836;6.376;2023-03-01T06:07:30;17.27;;;12.60;;
55455;SDS011;63021;52.836;6.376;2023-03-01T06:09:56;15.60;;;13.00;;
55455;SDS011;63021;52.836;6.376;2023-03-01T06:12:22;16.83;;;12.68;;
55455;SDS011;63021;52.836;6.376;2023-03-01T06:14:47;18.00;;;13.35;;
55455;SDS011;63021;52.836;6.376;2023-03-01T06:17:13;17.17;;;12.60;;
55455;SDS011;63021;52.836;6.376;2023-03-01T06:19:38;16.17;;;12.35;;
55455;SDS011;63021;52.836;6.376;2023-03-01T06:22:07;19.08;;;13.40;;
55455;SDS011;63021;52.836;6.376;2023-03-01T06:24:33;15.73;;;13.50;;
55455;SDS011;63021;52.836;6.376;2023-03-01T06:26:58;16.17;;;12.75;;
55455;SDS011;63021;52.836;6.376;2023-03-01T06:29:24;16.75;;;13.75;;
55455;SDS011;63021;52.836;6.376;2023-03-01T06:31:49;16.40;;;12.70;;
55455;SDS011;63021;52.836;6.376;2023-03-01T06:34:15;16.10;;;13.07;;
55455;SDS011;63021;52.836;6.376;2023-03-01T06:36:43;15.95;;;13.20;;
55455;SDS011;63021;52.836;6.376;2023-03-01T06:39:08;18.83;;;14.57;;
55455;SDS011;63021;52.836;6.376;2023-03-01T06:41:34;18.63;;;14.43;;
55455;SDS011;63021;52.836;6.376;2023-03-01T06:43:59;20.50;;;14.52;;
55455;SDS011;63021;52.836;6.376;2023-03-01T06:46:25;16.73;;;13.70;;
55455;SDS011;63021;52.836;6.376;2023-03-01T06:48:50;20.65;;;14.18;;
55455;SDS011;63021;52.836;6.376;2023-03-01T06:51:16;21.90;;;14.05;;
55455;SDS011;63021;52.836;6.376;2023-03-01T06:53:41;14.98;;;11.80;;
55455;SDS011;63021;52.836;6.376;2023-03-01T06:56:07;18.65;;;13.32;;
55455;SDS011;63021;52.836;6.376;2023-03-01T06:58:32;18.23;;;13.30;;
55455;SDS011;63021;52.836;6.376;2023-03-01T07:00:57;17.20;;;13.18;;
55455;SDS011;63021;52.836;6.376;2023-03-01T07:03:23;17.23;;;13.07;;
55455;SDS011;63021;52.836;6.376;2023-03-01T07:05:49;20.58;;;14.45;;
55455;SDS011;63021;52.836;6.376;2023-03-01T07:08:17;20.45;;;14.60;;
55455;SDS011;63021;52.836;6.376;2023-03-01T07:10:43;20.77;;;14.70;;
55455;SDS011;63021;52.836;6.376;2023-03-01T07:13:08;20.35;;;14.25;;
55455;SDS011;63021;52.836;6.376;2023-03-01T07:15:33;22.42;;;15.13;;
55455;SDS011;63021;52.836;6.376;2023-03-01T07:17:59;20.58;;;13.30;;
55455;SDS011;63021;52.836;6.376;2023-03-01T07:20:24;20.23;;;13.52;;
55455;SDS011;63021;52.836;6.376;2023-03-01T07:22:50;19.83;;;14.95;;
55455;SDS011;63021;52.836;6.376;2023-03-01T07:25:19;22.42;;;15.95;;
55455;SDS011;63021;52.836;6.376;2023-03-01T07:27:49;19.90;;;15.10;;
55455;SDS011;63021;52.836;6.376;2023-03-01T07:30:20;23.08;;;15.20;;
55455;SDS011;63021;52.836;6.376;2023-03-01T07:32:46;21.02;;;15.13;;
55455;SDS011;63021;52.836;6.376;2023-03-01T07:35:11;21.27;;;14.00;;
55455;SDS011;63021;52.836;6.376;2023-03-01T07:37:37;20.65;;;14.30;;
55455;SDS011;63021;52.836;6.376;2023-03-01T07:40:03;19.45;;;14.80;;
55455;SDS011;63021;52.836;6.376;2023-03-01T07:42:28;18.92;;;13.70;;
55455;SDS011;63021;52.836;6.376;2023-03-01T07:44:54;24.42;;;14.90;;
55455;SDS011;63021;52.836;6.376;2023-03-01T07:47:19;17.92;;;13.63;;
55455;SDS011;63021;52.836;6.376;2023-03-01T07:49:45;17.73;;;14.52;;
55455;SDS011;63021;52.836;6.376;2023-03-01T07:52:11;21.13;;;15.07;;
55455;SDS011;63021;52.836;6.376;2023-03-01T07:54:37;19.35;;;15.25;;
55455;SDS011;63021;52.836;6.376;2023-03-01T07:57:02;22.88;;;17.38;;
55455;SDS011;63021;52.836;6.376;2023-03-01T07:59:28;24.38;;;18.08;;
55455;SDS011;63021;52.836;6.376;2023-03-01T08:01:57;23.88;;;18.00;;
55455;SDS011;63021;52.836;6.376;2023-03-01T08:04:23;22.67;;;16.65;;
55455;SDS011;63021;52.836;6.376;2023-03-01T08:06:51;22.52;;;16.25;;
55455;SDS011;63021;52.836;6.376;2023-03-01T08:09:17;22.52;;;16.52;;
55455;SDS011;63021;52.836;6.376;2023-03-01T08:11:42;23.13;;;15.82;;
55455;SDS011;63021;52.836;6.376;2023-03-01T08:14:08;22.48;;;16.55;;
55455;SDS011;63021;52.836;6.376;2023-03-01T08:16:35;27.35;;;17.63;;
55455;SDS011;63021;52.836;6.376;2023-03-01T08:19:08;25.27;;;17.65;;
55455;SDS011;63021;52.836;6.376;2023-03-01T08:21:34;26.70;;;17.38;;
55455;SDS011;63021;52.836;6.376;2023-03-01T08:24:01;31.33;;;18.98;;
55455;SDS011;63021;52.836;6.376;2023-03-01T08:26:27;29.73;;;19.38;;
55455;SDS011;63021;52.836;6.376;2023-03-01T08:28:53;26.70;;;18.58;;
55455;SDS011;63021;52.836;6.376;2023-03-01T08:33:46;31.20;;;20.38;;
55455;SDS011;63021;52.836;6.376;2023-03-01T08:36:20;28.70;;;20.77;;
55455;SDS011;63021;52.836;6.376;2023-03-01T08:38:46;30.60;;;19.50;;
55455;SDS011;63021;52.836;6.376;2023-03-01T08:41:14;29.00;;;20.80;;
55455;SDS011;63021;52.836;6.376;2023-03-01T08:43:41;33.45;;;20.13;;
55455;SDS011;63021;52.836;6.376;2023-03-01T08:46:06;30.42;;;21.38;;
55455;SDS011;63021;52.836;6.376;2023-03-01T08:48:32;35.30;;;22.17;;
55455;SDS011;63021;52.836;6.376;2023-03-01T08:50:59;37.75;;;23.35;;
55455;SDS011;63021;52.836;6.376;2023-03-01T08:53:33;34.15;;;21.27;;
55455;SDS011;63021;52.836;6.376;2023-03-01T08:55:59;36.72;;;22.67;;
55455;SDS011;63021;52.836;6.376;2023-03-01T08:58:27;31.30;;;20.13;;
55455;SDS011;63021;52.836;6.376;2023-03-01T09:00:53;37.08;;;21.90;;
55455;SDS011;63021;52.836;6.376;2023-03-01T09:03:18;38.35;;;22.63;;
55455;SDS011;63021;52.836;6.376;2023-03-01T09:05:43;39.10;;;23.20;;
55455;SDS011;63021;52.836;6.376;2023-03-01T09:08:10;36.55;;;22.98;;
55455;SDS011;63021;52.836;6.376;2023-03-01T09:10:39;36.08;;;23.20;;
55455;SDS011;63021;52.836;6.376;2023-03-01T09:13:04;41.42;;;24.55;;
55455;SDS011;63021;52.836;6.376;2023-03-01T09:15:30;35.00;;;22.58;;
55455;SDS011;63021;52.836;6.376;2023-03-01T09:17:55;38.17;;;23.58;;
55455;SDS011;63021;52.836;6.376;2023-03-01T09:20:21;34.53;;;22.27;;
55455;SDS011;63021;52.836;6.376;2023-03-01T09:22:46;33.45;;;22.27;;
55455;SDS011;63021;52.836;6.376;2023-03-01T09:25:12;35.85;;;23.48;;
55455;SDS011;63021;52.836;6.376;2023-03-01T09:27:37;36.40;;;24.13;;
55455;SDS011;63021;52.836;6.376;2023-03-01T09:30:03;38.88;;;23.38;;
55455;SDS011;63021;52.836;6.376;2023-03-01T09:32:30;40.08;;;24.30;;
55455;SDS011;63021;52.836;6.376;2023-03-01T09:34:56;40.50;;;24.25;;
55455;SDS011;63021;52.836;6.376;2023-03-01T09:37:31;37.60;;;24.20;;
55455;SDS011;63021;52.836;6.376;2023-03-01T09:39:58;40.10;;;24.60;;
55455;SDS011;63021;52.836;6.376;2023-03-01T09:42:23;32.58;;;21.98;;
55455;SDS011;63021;52.836;6.376;2023-03-01T09:45:00;34.08;;;20.92;;
55455;SDS011;63021;52.836;6.376;2023-03-01T09:47:34;31.52;;;19.27;;
55455;SDS011;63021;52.836;6.376;2023-03-01T09:55:34;24.45;;;16.67;;
55455;SDS011;63021;52.836;6.376;2023-03-01T10:00:47;22.20;;;14.98;;
55455;SDS011;63021;52.836;6.376;2023-03-01T10:06:14;27.77;;;15.27;;
55455;SDS011;63021;52.836;6.376;2023-03-01T10:08:48;22.73;;;13.05;;
55455;SDS011;63021;52.836;6.376;2023-03-01T10:13:46;18.15;;;12.45;;
55455;SDS011;63021;52.836;6.376;2023-03-01T10:16:20;17.17;;;11.20;;
55455;SDS011;63021;52.836;6.376;2023-03-01T10:18:53;18.02;;;10.68;;
55455;SDS011;63021;52.836;6.376;2023-03-01T10:21:23;14.60;;;9.60;;
55455;SDS011;63021;52.836;6.376;2023-03-01T10:23:51;16.33;;;8.30;;
55455;SDS011;63021;52.836;6.376;2023-03-01T10:29:09;11.00;;;6.88;;
55455;SDS011;63021;52.836;6.376;2023-03-01T10:34:12;13.15;;;7.43;;
55455;SDS011;63021;52.836;6.376;2023-03-01T10:36:40;9.13;;;7.25;;
55455;SDS011;63021;52.836;6.376;2023-03-01T10:39:17;11.80;;;8.48;;
55455;SDS011;63021;52.836;6.376;2023-03-01T10:44:40;12.00;;;8.70;;
55455;SDS011;63021;52.836;6.376;2023-03-01T10:47:12;11.90;;;7.97;;
55455;SDS011;63021;52.836;6.376;2023-03-01T10:49:49;11.65;;;8.55;;
55455;SDS011;63021;52.836;6.376;2023-03-01T10:52:18;10.57;;;8.20;;
55455;SDS011;63021;52.836;6.376;2023-03-01T10:54:55;14.10;;;8.50;;
55455;SDS011;63021;52.836;6.376;2023-03-01T10:57:31;17.38;;;8.82;;
55455;SDS011;63021;52.836;6.376;2023-03-01T11:02:46;12.82;;;8.85;;
55455;SDS011;63021;52.836;6.376;2023-03-01T11:07:47;11.85;;;8.15;;
55455;SDS011;63021;52.836;6.376;2023-03-01T11:10:16;12.95;;;8.70;;
55455;SDS011;63021;52.836;6.376;2023-03-01T11:12:52;16.85;;;8.90;;
55455;SDS011;63021;52.836;6.376;2023-03-01T11:15:30;12.20;;;8.65;;
55455;SDS011;63021;52.836;6.376;2023-03-01T11:17:56;11.65;;;8.90;;
55455;SDS011;63021;52.836;6.376;2023-03-01T11:20:27;16.33;;;9.68;;
55455;SDS011;63021;52.836;6.376;2023-03-01T11:23:09;19.30;;;10.48;;
55455;SDS011;63021;52.836;6.376;2023-03-01T11:25:37;16.67;;;9.40;;
55455;SDS011;63021;52.836;6.376;2023-03-01T11:28:07;17.00;;;10.02;;
55455;SDS011;63021;52.836;6.376;2023-03-01T11:35:59;17.38;;;8.90;;
55455;SDS011;63021;52.836;6.376;2023-03-01T11:38:29;13.15;;;8.48;;
55455;SDS011;63021;52.836;6.376;2023-03-01T11:41:15;10.70;;;6.55;;
55455;SDS011;63021;52.836;6.376;2023-03-01T12:03:28;15.75;;;9.70;;
55455;SDS011;63021;52.836;6.376;2023-03-01T12:11:37;14.10;;;9.77;;
55455;SDS011;63021;52.836;6.376;2023-03-01T12:14:22;13.57;;;10.55;;
55455;SDS011;63021;52.836;6.376;2023-03-01T12:17:06;20.15;;;11.45;;
55455;SDS011;63021;52.836;6.376;2023-03-01T12:28:03;19.17;;;10.40;;
55455;SDS011;63021;52.836;6.376;2023-03-01T12:33:47;14.13;;;10.02;;
55455;SDS011;63021;52.836;6.376;2023-03-01T12:39:24;16.90;;;10.02;;
55455;SDS011;63021;52.836;6.376;2023-03-01T12:47:19;17.35;;;11.27;;
55455;SDS011;63021;52.836;6.376;2023-03-01T12:49:56;16.40;;;10.63;;
55455;SDS011;63021;52.836;6.376;2023-03-01T12:52:39;17.85;;;12.68;;
55455;SDS011;63021;52.836;6.376;2023-03-01T12:55:31;17.02;;;10.82;;
55455;SDS011;63021;52.836;6.376;2023-03-01T13:03:28;14.65;;;10.80;;
55455;SDS011;63021;52.836;6.376;2023-03-01T13:06:19;18.48;;;11.05;;
55455;SDS011;63021;52.836;6.376;2023-03-01T13:09:06;15.90;;;10.15;;
55455;SDS011;63021;52.836;6.376;2023-03-01T13:11:53;15.00;;;10.30;;
55455;SDS011;63021;52.836;6.376;2023-03-01T13:16:50;15.07;;;9.88;;
55455;SDS011;63021;52.836;6.376;2023-03-01T13:19:18;14.02;;;9.18;;
55455;SDS011;63021;52.836;6.376;2023-03-01T13:21:45;10.90;;;7.63;;
55455;SDS011;63021;52.836;6.376;2023-03-01T13:24:26;13.88;;;8.40;;
55455;SDS011;63021;52.836;6.376;2023-03-01T13:34:58;13.20;;;7.90;;
55455;SDS011;63021;52.836;6.376;2023-03-01T13:37:34;13.40;;;9.15;;
55455;SDS011;63021;52.836;6.376;2023-03-01T13:40:04;12.80;;;9.23;;
55455;SDS011;63021;52.836;6.376;2023-03-01T13:42:50;10.25;;;8.40;;
55455;SDS011;63021;52.836;6.376;2023-03-01T13:45:19;12.45;;;9.23;;
55455;SDS011;63021;52.836;6.376;2023-03-01T13:47:45;16.55;;;10.32;;
55455;SDS011;63021;52.836;6.376;2023-03-01T13:50:31;13.73;;;9.75;;
55455;SDS011;63021;52.836;6.376;2023-03-01T13:53:03;14.38;;;9.32;;
55455;SDS011;63021;52.836;6.376;2023-03-01T13:55:44;13.93;;;9.57;;
55455;SDS011;63021;52.836;6.376;2023-03-01T13:58:16;15.45;;;10.55;;
55455;SDS011;63021;52.836;6.376;2023-03-01T14:00:46;17.75;;;11.38;;
55455;SDS011;63021;52.836;6.376;2023-03-01T14:05:43;16.17;;;10.70;;
55455;SDS011;63021;52.836;6.376;2023-03-01T14:08:25;55.08;;;12.13;;
55455;SDS011;63021;52.836;6.376;2023-03-01T14:10:54;20.45;;;10.38;;
55455;SDS011;63021;52.836;6.376;2023-03-01T14:19:24;14.48;;;9.98;;
55455;SDS011;63021;52.836;6.376;2023-03-01T14:25:03;11.95;;;8.90;;
55455;SDS011;63021;52.836;6.376;2023-03-01T14:27:38;15.40;;;9.50;;
55455;SDS011;63021;52.836;6.376;2023-03-01T14:30:11;12.65;;;9.30;;
55455;SDS011;63021;52.836;6.376;2023-03-01T14:32:42;12.27;;;8.73;;
55455;SDS011;63021;52.836;6.376;2023-03-01T14:35:20;14.82;;;9.57;;
55455;SDS011;63021;52.836;6.376;2023-03-01T14:37:50;16.52;;;9.80;;
55455;SDS011;63021;52.836;6.376;2023-03-01T14:40:21;10.88;;;8.57;;
55455;SDS011;63021;52.836;6.376;2023-03-01T14:42:47;13.75;;;9.63;;
55455;SDS011;63021;52.836;6.376;2023-03-01T14:45:12;12.40;;;8.98;;
55455;SDS011;63021;52.836;6.376;2023-03-01T14:47:39;15.55;;;9.38;;
55455;SDS011;63021;52.836;6.376;2023-03-01T14:50:09;12.50;;;8.73;;
55455;SDS011;63021;52.836;6.376;2023-03-01T14:53:02;11.13;;;8.38;;
55455;SDS011;63021;52.836;6.376;2023-03-01T14:55:37;15.23;;;8.55;;
55455;SDS011;63021;52.836;6.376;2023-03-01T14:58:08;12.48;;;8.57;;
55455;SDS011;63021;52.836;6.376;2023-03-01T15:00:38;15.55;;;9.27;;
55455;SDS011;63021;52.836;6.376;2023-03-01T15:03:10;12.73;;;9.05;;
55455;SDS011;63021;52.836;6.376;2023-03-01T15:05:39;13.40;;;9.18;;
55455;SDS011;63021;52.836;6.376;2023-03-01T15:08:07;12.02;;;9.20;;
55455;SDS011;63021;52.836;6.376;2023-03-01T15:10:54;13.40;;;10.32;;
55455;SDS011;63021;52.836;6.376;2023-03-01T15:13:25;13.32;;;8.50;;
55455;SDS011;63021;52.836;6.376;2023-03-01T15:15:53;12.88;;;9.15;;
55455;SDS011;63021;52.836;6.376;2023-03-01T15:18:36;15.10;;;9.45;;
55455;SDS011;63021;52.836;6.376;2023-03-01T15:21:36;16.98;;;9.45;;
55455;SDS011;63021;52.836;6.376;2023-03-01T15:24:17;13.13;;;10.25;;
55455;SDS011;63021;52.836;6.376;2023-03-01T15:26:52;12.57;;;9.38;;
55455;SDS011;63021;52.836;6.376;2023-03-01T15:29:23;11.27;;;8.82;;
55455;SDS011;63021;52.836;6.376;2023-03-01T15:36:54;14.65;;;9.50;;
55455;SDS011;63021;52.836;6.376;2023-03-01T15:39:33;13.32;;;10.13;;
55455;SDS011;63021;52.836;6.376;2023-03-01T15:42:04;16.35;;;8.85;;
55455;SDS011;63021;52.836;6.376;2023-03-01T15:44:35;13.15;;;9.80;;
55455;SDS011;63021;52.836;6.376;2023-03-01T15:47:04;15.07;;;9.93;;
55455;SDS011;63021;52.836;6.376;2023-03-01T15:49:46;16.17;;;10.02;;
55455;SDS011;63021;52.836;6.376;2023-03-01T15:52:17;15.13;;;10.10;;
55455;SDS011;63021;52.836;6.376;2023-03-01T15:54:53;15.75;;;10.30;;
55455;SDS011;63021;52.836;6.376;2023-03-01T15:57:27;16.42;;;9.60;;
55455;SDS011;63021;52.836;6.376;2023-03-01T15:59:52;14.15;;;9.85;;
55455;SDS011;63021;52.836;6.376;2023-03-01T16:02:18;14.50;;;10.00;;
55455;SDS011;63021;52.836;6.376;2023-03-01T16:04:45;13.00;;;9.38;;
55455;SDS011;63021;52.836;6.376;2023-03-01T16:07:11;15.57;;;10.00;;
55455;SDS011;63021;52.836;6.376;2023-03-01T16:09:37;15.93;;;9.80;;
55455;SDS011;63021;52.836;6.376;2023-03-01T16:12:02;14.10;;;9.35;;
55455;SDS011;63021;52.836;6.376;2023-03-01T16:14:28;15.77;;;10.20;;
55455;SDS011;63021;52.836;6.376;2023-03-01T16:16:53;13.98;;;10.13;;
55455;SDS011;63021;52.836;6.376;2023-03-01T16:19:19;16.40;;;10.45;;
55455;SDS011;63021;52.836;6.376;2023-03-01T16:21:44;12.73;;;9.20;;
55455;SDS011;63021;52.836;6.376;2023-03-01T16:24:12;16.40;;;10.32;;
55455;SDS011;63021;52.836;6.376;2023-03-01T16:26:38;15.30;;;10.00;;
55455;SDS011;63021;52.836;6.376;2023-03-01T16:29:04;18.27;;;10.65;;
55455;SDS011;63021;52.836;6.376;2023-03-01T16:31:30;18.10;;;11.05;;
55455;SDS011;63021;52.836;6.376;2023-03-01T16:33:56;13.43;;;10.18;;